sensor_id;sensor_type;location;lat;lon;timestamp;temperature;humidity
4279;DHT22;2153;47.744;10.580;2023-06-14T00:02:14;6.50;99.90
4279;DHT22;2153;47.744;10.580;2023-06-14T00:04:41;6.60;99.90
4279;DHT22;2153;47.744;10.580;2023-06-14T00:07:08;6.60;99.90
4279;DHT22;2153;47.744;10.580;2023-06-14T00:09:35;6.60;99.90
4279;DHT22;2153;47.744;10.580;2023-06-14T00:12:03;6.40;99.90
4279;DHT22;2153;47.744;10.580;2023-06-14T00:14:31;6.40;99.90
4279;DHT22;2153;47.744;10.580;2023-06-14T00:16:58;6.30;99.90
4279;DHT22;2153;47.744;10.580;2023-06-14T00:19:26;6.20;99.90
4279;DHT22;2153;47.744;10.580;2023-06-14T00:21:52;6.10;99.90
4279;DHT22;2153;47.744;10.580;2023-06-14T00:24:19;6.10;99.90
4279;DHT22;2153;47.744;10.580;2023-06-14T00:26:47;6.00;99.90
4279;DHT22;2153;47.744;10.580;2023-06-14T00:29:15;6.10;99.90
4279;DHT22;2153;47.744;10.580;2023-06-14T00:31:42;6.10;99.90
4279;DHT22;2153;47.744;10.580;2023-06-14T00:34:08;6.10;99.90
4279;DHT22;2153;47.744;10.580;2023-06-14T00:36:35;6.10;99.90
4279;DHT22;2153;47.744;10.580;2023-06-14T00:39:02;6.10;99.90
4279;DHT22;2153;47.744;10.580;2023-06-14T00:41:29;5.90;99.90
4279;DHT22;2153;47.744;10.580;2023-06-14T00:43:55;5.90;99.90
4279;DHT22;2153;47.744;10.580;2023-06-14T00:46:24;5.90;99.90
4279;DHT22;2153;47.744;10.580;2023-06-14T00:48:51;5.90;99.90
4279;DHT22;2153;47.744;10.580;2023-06-14T00:51:17;5.70;99.90
4279;DHT22;2153;47.744;10.580;2023-06-14T00:53:44;5.60;99.90
4279;DHT22;2153;47.744;10.580;2023-06-14T00:56:12;5.50;99.90
4279;DHT22;2153;47.744;10.580;2023-06-14T00:58:40;5.50;99.90
4279;DHT22;2153;47.744;10.580;2023-06-14T01:01:07;5.50;99.90
4279;DHT22;2153;47.744;10.580;2023-06-14T01:03:35;5.60;99.90
4279;DHT22;2153;47.744;10.580;2023-06-14T01:06:12;5.70;99.90
4279;DHT22;2153;47.744;10.580;2023-06-14T01:08:48;5.60;99.90
4279;DHT22;2153;47.744;10.580;2023-06-14T01:11:22;5.40;99.90
4279;DHT22;2153;47.744;10.580;2023-06-14T01:13:52;5.40;99.90
4279;DHT22;2153;47.744;10.580;2023-06-14T01:16:19;5.40;99.90
4279;DHT22;2153;47.744;10.580;2023-06-14T01:18:48;5.50;99.90
4279;DHT22;2153;47.744;10.580;2023-06-14T01:21:21;5.50;99.90
4279;DHT22;2153;47.744;10.580;2023-06-14T01:23:49;5.30;99.90
4279;DHT22;2153;47.744;10.580;2023-06-14T01:26:19;5.10;99.90
4279;DHT22;2153;47.744;10.580;2023-06-14T01:28:45;4.90;99.90
4279;DHT22;2153;47.744;10.580;2023-06-14T01:31:17;4.90;99.90
4279;DHT22;2153;47.744;10.580;2023-06-14T01:33:44;4.90;99.90
4279;DHT22;2153;47.744;10.580;2023-06-14T01:36:12;5.00;99.90
4279;DHT22;2153;47.744;10.580;2023-06-14T01:38:39;5.00;99.90
4279;DHT22;2153;47.744;10.580;2023-06-14T01:41:08;5.00;99.90
4279;DHT22;2153;47.744;10.580;2023-06-14T01:43:36;4.80;99.90
4279;DHT22;2153;47.744;10.580;2023-06-14T01:46:03;4.70;99.90
4279;DHT22;2153;47.744;10.580;2023-06-14T01:48:30;4.80;99.90
4279;DHT22;2153;47.744;10.580;2023-06-14T01:50:57;4.90;99.90
4279;DHT22;2153;47.744;10.580;2023-06-14T01:53:23;4.90;99.90
4279;DHT22;2153;47.744;10.580;2023-06-14T01:55:50;5.00;99.90
4279;DHT22;2153;47.744;10.580;2023-06-14T01:58:20;5.00;99.90
4279;DHT22;2153;47.744;10.580;2023-06-14T02:00:47;5.00;99.90
4279;DHT22;2153;47.744;10.580;2023-06-14T02:03:13;5.00;99.90
4279;DHT22;2153;47.744;10.580;2023-06-14T02:05:40;5.10;99.90
4279;DHT22;2153;47.744;10.580;2023-06-14T02:08:07;5.10;99.90
4279;DHT22;2153;47.744;10.580;2023-06-14T02:10:33;5.00;99.90
4279;DHT22;2153;47.744;10.580;2023-06-14T02:13:00;5.00;99.90
4279;DHT22;2153;47.744;10.580;2023-06-14T02:15:28;4.90;99.90
4279;DHT22;2153;47.744;10.580;2023-06-14T02:17:59;4.60;99.90
4279;DHT22;2153;47.744;10.580;2023-06-14T02:20:26;4.50;99.90
4279;DHT22;2153;47.744;10.580;2023-06-14T02:22:54;4.50;99.90
4279;DHT22;2153;47.744;10.580;2023-06-14T02:25:20;4.60;99.90
4279;DHT22;2153;47.744;10.580;2023-06-14T02:27:47;4.60;99.90
4279;DHT22;2153;47.744;10.580;2023-06-14T02:30:14;4.50;99.90
4279;DHT22;2153;47.744;10.580;2023-06-14T02:32:42;4.50;99.90
4279;DHT22;2153;47.744;10.580;2023-06-14T02:35:09;4.50;99.90
4279;DHT22;2153;47.744;10.580;2023-06-14T02:37:35;4.50;99.90
4279;DHT22;2153;47.744;10.580;2023-06-14T02:40:03;4.60;99.90
4279;DHT22;2153;47.744;10.580;2023-06-14T02:42:31;4.50;99.90
4279;DHT22;2153;47.744;10.580;2023-06-14T02:44:57;4.20;99.90
4279;DHT22;2153;47.744;10.580;2023-06-14T02:47:24;4.10;99.90
4279;DHT22;2153;47.744;10.580;2023-06-14T02:49:52;4.10;99.90
4279;DHT22;2153;47.744;10.580;2023-06-14T02:52:19;4.20;99.90
4279;DHT22;2153;47.744;10.580;2023-06-14T02:54:45;4.20;99.90
4279;DHT22;2153;47.744;10.580;2023-06-14T02:57:12;4.20;99.90
4279;DHT22;2153;47.744;10.580;2023-06-14T02:59:39;4.20;99.90
4279;DHT22;2153;47.744;10.580;2023-06-14T03:02:06;4.20;99.90
4279;DHT22;2153;47.744;10.580;2023-06-14T03:04:32;4.20;99.90
4279;DHT22;2153;47.744;10.580;2023-06-14T03:07:04;4.10;99.90
4279;DHT22;2153;47.744;10.580;2023-06-14T03:09:34;4.10;99.90
4279;DHT22;2153;47.744;10.580;2023-06-14T03:12:01;4.20;99.90
4279;DHT22;2153;47.744;10.580;2023-06-14T03:14:28;4.20;99.90
4279;DHT22;2153;47.744;10.580;2023-06-14T03:16:56;4.00;99.90
4279;DHT22;2153;47.744;10.580;2023-06-14T03:19:22;3.90;99.90
4279;DHT22;2153;47.744;10.580;2023-06-14T03:21:49;3.80;99.90
4279;DHT22;2153;47.744;10.580;2023-06-14T03:24:17;3.80;99.90
4279;DHT22;2153;47.744;10.580;2023-06-14T03:26:44;3.90;99.90
4279;DHT22;2153;47.744;10.580;2023-06-14T03:29:10;3.90;99.90
4279;DHT22;2153;47.744;10.580;2023-06-14T03:31:56;4.00;99.90
4279;DHT22;2153;47.744;10.580;2023-06-14T03:34:23;3.90;99.90
4279;DHT22;2153;47.744;10.580;2023-06-14T03:36:49;3.70;99.90
4279;DHT22;2153;47.744;10.580;2023-06-14T03:39:17;3.70;99.90
4279;DHT22;2153;47.744;10.580;2023-06-14T03:41:44;3.80;99.90
4279;DHT22;2153;47.744;10.580;2023-06-14T03:44:11;3.90;99.90
4279;DHT22;2153;47.744;10.580;2023-06-14T03:46:37;4.00;99.90
4279;DHT22;2153;47.744;10.580;2023-06-14T03:49:04;4.00;99.90
4279;DHT22;2153;47.744;10.580;2023-06-14T03:51:31;4.00;99.90
4279;DHT22;2153;47.744;10.580;2023-06-14T03:53:57;4.00;99.90
4279;DHT22;2153;47.744;10.580;2023-06-14T03:56:25;4.00;99.90
4279;DHT22;2153;47.744;10.580;2023-06-14T03:58:52;4.10;99.90
4279;DHT22;2153;47.744;10.580;2023-06-14T04:01:19;4.10;99.90
4279;DHT22;2153;47.744;10.580;2023-06-14T04:03:46;4.10;99.90
4279;DHT22;2153;47.744;10.580;2023-06-14T04:06:13;4.20;99.90
4279;DHT22;2153;47.744;10.580;2023-06-14T04:08:44;4.30;99.90
4279;DHT22;2153;47.744;10.580;2023-06-14T04:11:11;4.50;99.90
4279;DHT22;2153;47.744;10.580;2023-06-14T04:13:39;4.70;99.90
4279;DHT22;2153;47.744;10.580;2023-06-14T04:16:06;5.00;99.90
4279;DHT22;2153;47.744;10.580;2023-06-14T04:18:32;5.20;99.90
4279;DHT22;2153;47.744;10.580;2023-06-14T04:20:59;5.40;99.90
4279;DHT22;2153;47.744;10.580;2023-06-14T04:23:26;5.70;99.90
4279;DHT22;2153;47.744;10.580;2023-06-14T04:25:53;5.90;99.90
4279;DHT22;2153;47.744;10.580;2023-06-14T04:28:20;6.00;99.90
4279;DHT22;2153;47.744;10.580;2023-06-14T04:30:53;6.00;99.90
4279;DHT22;2153;47.744;10.580;2023-06-14T04:33:20;6.00;99.90
4279;DHT22;2153;47.744;10.580;2023-06-14T04:35:48;6.20;99.90
4279;DHT22;2153;47.744;10.580;2023-06-14T04:38:19;6.40;99.90
4279;DHT22;2153;47.744;10.580;2023-06-14T04:40:49;6.60;99.90
4279;DHT22;2153;47.744;10.580;2023-06-14T04:43:18;6.90;99.90
4279;DHT22;2153;47.744;10.580;2023-06-14T04:45:50;7.10;99.90
4279;DHT22;2153;47.744;10.580;2023-06-14T04:48:18;7.40;99.90
4279;DHT22;2153;47.744;10.580;2023-06-14T04:50:46;7.60;99.90
4279;DHT22;2153;47.744;10.580;2023-06-14T04:53:12;7.90;99.90
4279;DHT22;2153;47.744;10.580;2023-06-14T04:55:39;8.20;99.90
4279;DHT22;2153;47.744;10.580;2023-06-14T04:58:10;8.20;99.90
4279;DHT22;2153;47.744;10.580;2023-06-14T05:00:38;8.30;99.90
4279;DHT22;2153;47.744;10.580;2023-06-14T05:03:05;8.60;99.90
4279;DHT22;2153;47.744;10.580;2023-06-14T05:05:33;8.80;99.90
4279;DHT22;2153;47.744;10.580;2023-06-14T05:08:00;8.80;99.90
4279;DHT22;2153;47.744;10.580;2023-06-14T05:10:27;9.00;99.90
4279;DHT22;2153;47.744;10.580;2023-06-14T05:12:53;9.10;99.90
4279;DHT22;2153;47.744;10.580;2023-06-14T05:15:20;9.50;99.90
4279;DHT22;2153;47.744;10.580;2023-06-14T05:17:53;9.70;99.90
4279;DHT22;2153;47.744;10.580;2023-06-14T05:20:21;9.90;99.90
4279;DHT22;2153;47.744;10.580;2023-06-14T05:22:52;10.10;99.90
4279;DHT22;2153;47.744;10.580;2023-06-14T05:25:18;10.30;99.90
4279;DHT22;2153;47.744;10.580;2023-06-14T05:27:45;10.30;99.90
4279;DHT22;2153;47.744;10.580;2023-06-14T05:30:13;10.40;99.90
4279;DHT22;2153;47.744;10.580;2023-06-14T05:32:40;10.60;99.90
4279;DHT22;2153;47.744;10.580;2023-06-14T05:35:07;10.90;99.90
4279;DHT22;2153;47.744;10.580;2023-06-14T05:37:34;11.10;99.90
4279;DHT22;2153;47.744;10.580;2023-06-14T05:40:02;11.40;99.90
4279;DHT22;2153;47.744;10.580;2023-06-14T05:42:31;11.60;99.90
4279;DHT22;2153;47.744;10.580;2023-06-14T05:44:58;11.80;99.90
4279;DHT22;2153;47.744;10.580;2023-06-14T05:47:24;12.20;99.90
4279;DHT22;2153;47.744;10.580;2023-06-14T05:49:51;12.40;99.90
4279;DHT22;2153;47.744;10.580;2023-06-14T05:52:17;12.60;99.90
4279;DHT22;2153;47.744;10.580;2023-06-14T05:54:44;12.80;99.90
4279;DHT22;2153;47.744;10.580;2023-06-14T05:57:12;13.00;99.90
4279;DHT22;2153;47.744;10.580;2023-06-14T05:59:39;13.30;99.90
4279;DHT22;2153;47.744;10.580;2023-06-14T06:02:06;13.50;99.90
4279;DHT22;2153;47.744;10.580;2023-06-14T06:04:32;13.60;99.90
4279;DHT22;2153;47.744;10.580;2023-06-14T06:06:59;13.80;99.90
4279;DHT22;2153;47.744;10.580;2023-06-14T06:09:26;14.00;99.90
4279;DHT22;2153;47.744;10.580;2023-06-14T06:11:52;14.30;99.90
4279;DHT22;2153;47.744;10.580;2023-06-14T06:14:20;14.40;99.90
4279;DHT22;2153;47.744;10.580;2023-06-14T06:16:47;14.70;99.90
4279;DHT22;2153;47.744;10.580;2023-06-14T06:19:14;15.10;99.90
4279;DHT22;2153;47.744;10.580;2023-06-14T06:21:41;15.10;99.90
4279;DHT22;2153;47.744;10.580;2023-06-14T06:24:07;15.30;99.90
4279;DHT22;2153;47.744;10.580;2023-06-14T06:26:34;15.50;99.90
4279;DHT22;2153;47.744;10.580;2023-06-14T06:29:01;15.80;99.90
4279;DHT22;2153;47.744;10.580;2023-06-14T06:31:29;16.20;99.90
4279;DHT22;2153;47.744;10.580;2023-06-14T06:33:55;16.40;99.90
4279;DHT22;2153;47.744;10.580;2023-06-14T06:36:22;16.50;96.70
4279;DHT22;2153;47.744;10.580;2023-06-14T06:38:48;16.70;94.20
4279;DHT22;2153;47.744;10.580;2023-06-14T06:41:15;17.00;99.90
4279;DHT22;2153;47.744;10.580;2023-06-14T06:43:42;16.90;93.60
4279;DHT22;2153;47.744;10.580;2023-06-14T06:46:08;17.50;96.00
4279;DHT22;2153;47.744;10.580;2023-06-14T06:48:36;17.80;86.70
4279;DHT22;2153;47.744;10.580;2023-06-14T06:51:03;18.10;72.70
4279;DHT22;2153;47.744;10.580;2023-06-14T06:53:31;17.90;61.20
4279;DHT22;2153;47.744;10.580;2023-06-14T06:55:57;18.30;66.30
4279;DHT22;2153;47.744;10.580;2023-06-14T06:58:24;18.60;42.70
4279;DHT22;2153;47.744;10.580;2023-06-14T07:00:51;18.20;43.80
4279;DHT22;2153;47.744;10.580;2023-06-14T07:03:17;18.70;65.50
4279;DHT22;2153;47.744;10.580;2023-06-14T07:05:46;19.50;51.10
4279;DHT22;2153;47.744;10.580;2023-06-14T07:08:12;19.90;37.10
4279;DHT22;2153;47.744;10.580;2023-06-14T07:10:39;19.80;54.80
4279;DHT22;2153;47.744;10.580;2023-06-14T07:13:05;19.40;12.70
4279;DHT22;2153;47.744;10.580;2023-06-14T07:15:32;19.70;31.80
4279;DHT22;2153;47.744;10.580;2023-06-14T07:17:59;20.20;33.10
4279;DHT22;2153;47.744;10.580;2023-06-14T07:20:25;20.00;26.80
4279;DHT22;2153;47.744;10.580;2023-06-14T07:22:53;20.60;12.30
4279;DHT22;2153;47.744;10.580;2023-06-14T07:25:20;20.70;1.00
4279;DHT22;2153;47.744;10.580;2023-06-14T07:27:47;20.50;1.00
4279;DHT22;2153;47.744;10.580;2023-06-14T07:30:14;20.30;1.00
4279;DHT22;2153;47.744;10.580;2023-06-14T07:32:41;19.30;1.00
4279;DHT22;2153;47.744;10.580;2023-06-14T07:35:08;19.50;1.00
4279;DHT22;2153;47.744;10.580;2023-06-14T07:37:34;20.20;1.00
4279;DHT22;2153;47.744;10.580;2023-06-14T07:40:03;19.60;1.00
4279;DHT22;2153;47.744;10.580;2023-06-14T07:42:33;19.20;1.00
4279;DHT22;2153;47.744;10.580;2023-06-14T07:45:00;19.30;1.00
4279;DHT22;2153;47.744;10.580;2023-06-14T07:47:26;20.30;1.00
4279;DHT22;2153;47.744;10.580;2023-06-14T07:49:53;20.60;1.00
4279;DHT22;2153;47.744;10.580;2023-06-14T07:52:19;20.30;1.00
4279;DHT22;2153;47.744;10.580;2023-06-14T07:54:46;20.00;1.00
4279;DHT22;2153;47.744;10.580;2023-06-14T07:57:14;20.80;1.00
4279;DHT22;2153;47.744;10.580;2023-06-14T07:59:41;21.70;1.00
4279;DHT22;2153;47.744;10.580;2023-06-14T08:02:07;21.50;1.00
4279;DHT22;2153;47.744;10.580;2023-06-14T08:04:34;20.90;1.00
4279;DHT22;2153;47.744;10.580;2023-06-14T08:07:01;20.70;1.00
4279;DHT22;2153;47.744;10.580;2023-06-14T08:09:28;21.10;1.00
4279;DHT22;2153;47.744;10.580;2023-06-14T08:11:55;21.00;1.00
4279;DHT22;2153;47.744;10.580;2023-06-14T08:14:23;20.90;1.00
4279;DHT22;2153;47.744;10.580;2023-06-14T08:16:50;21.10;1.00
4279;DHT22;2153;47.744;10.580;2023-06-14T08:19:16;21.40;1.00
4279;DHT22;2153;47.744;10.580;2023-06-14T08:21:43;20.40;1.00
4279;DHT22;2153;47.744;10.580;2023-06-14T08:24:11;20.60;1.00
4279;DHT22;2153;47.744;10.580;2023-06-14T08:26:38;20.60;1.00
4279;DHT22;2153;47.744;10.580;2023-06-14T08:29:05;20.10;1.00
4279;DHT22;2153;47.744;10.580;2023-06-14T08:31:33;20.50;1.00
4279;DHT22;2153;47.744;10.580;2023-06-14T08:34:00;20.30;1.00
4279;DHT22;2153;47.744;10.580;2023-06-14T08:36:27;20.40;1.00
4279;DHT22;2153;47.744;10.580;2023-06-14T08:38:53;21.10;1.00
4279;DHT22;2153;47.744;10.580;2023-06-14T08:41:22;21.00;1.00
4279;DHT22;2153;47.744;10.580;2023-06-14T08:43:50;20.90;1.00
4279;DHT22;2153;47.744;10.580;2023-06-14T08:46:18;21.40;1.00
4279;DHT22;2153;47.744;10.580;2023-06-14T08:48:49;21.40;1.00
4279;DHT22;2153;47.744;10.580;2023-06-14T08:51:18;21.50;1.00
4279;DHT22;2153;47.744;10.580;2023-06-14T08:53:51;20.90;1.00
4279;DHT22;2153;47.744;10.580;2023-06-14T08:56:18;20.40;1.00
4279;DHT22;2153;47.744;10.580;2023-06-14T08:58:47;20.80;1.00
4279;DHT22;2153;47.744;10.580;2023-06-14T09:01:14;21.00;1.00
4279;DHT22;2153;47.744;10.580;2023-06-14T09:03:43;21.20;1.00
4279;DHT22;2153;47.744;10.580;2023-06-14T09:06:11;21.20;1.00
4279;DHT22;2153;47.744;10.580;2023-06-14T09:08:41;21.10;1.00
4279;DHT22;2153;47.744;10.580;2023-06-14T09:11:10;21.30;1.00
4279;DHT22;2153;47.744;10.580;2023-06-14T09:13:38;21.70;1.00
4279;DHT22;2153;47.744;10.580;2023-06-14T09:16:05;21.70;1.00
4279;DHT22;2153;47.744;10.580;2023-06-14T09:18:35;21.80;1.00
4279;DHT22;2153;47.744;10.580;2023-06-14T09:21:02;20.80;1.00
4279;DHT22;2153;47.744;10.580;2023-06-14T09:23:33;21.50;1.00
4279;DHT22;2153;47.744;10.580;2023-06-14T09:26:00;22.80;1.00
4279;DHT22;2153;47.744;10.580;2023-06-14T09:28:27;23.20;1.00
4279;DHT22;2153;47.744;10.580;2023-06-14T09:30:54;23.30;1.00
4279;DHT22;2153;47.744;10.580;2023-06-14T09:33:21;23.20;1.00
4279;DHT22;2153;47.744;10.580;2023-06-14T09:35:51;23.60;1.00
4279;DHT22;2153;47.744;10.580;2023-06-14T09:38:17;23.00;1.00
4279;DHT22;2153;47.744;10.580;2023-06-14T09:40:45;22.80;1.00
4279;DHT22;2153;47.744;10.580;2023-06-14T09:43:12;22.50;1.00
4279;DHT22;2153;47.744;10.580;2023-06-14T09:45:39;22.50;1.00
4279;DHT22;2153;47.744;10.580;2023-06-14T09:48:07;23.10;1.00
4279;DHT22;2153;47.744;10.580;2023-06-14T09:50:34;23.70;1.00
4279;DHT22;2153;47.744;10.580;2023-06-14T09:53:03;24.10;1.00
4279;DHT22;2153;47.744;10.580;2023-06-14T09:55:34;23.90;1.00
4279;DHT22;2153;47.744;10.580;2023-06-14T09:58:05;24.30;1.00
4279;DHT22;2153;47.744;10.580;2023-06-14T10:00:32;24.80;1.00
4279;DHT22;2153;47.744;10.580;2023-06-14T10:03:00;24.80;1.00
4279;DHT22;2153;47.744;10.580;2023-06-14T10:05:29;23.70;1.00
4279;DHT22;2153;47.744;10.580;2023-06-14T10:07:58;24.10;1.00
4279;DHT22;2153;47.744;10.580;2023-06-14T10:10:26;24.90;1.00
4279;DHT22;2153;47.744;10.580;2023-06-14T10:12:52;24.40;1.00
4279;DHT22;2153;47.744;10.580;2023-06-14T10:15:21;22.50;1.00
4279;DHT22;2153;47.744;10.580;2023-06-14T10:17:53;22.20;1.00
4279;DHT22;2153;47.744;10.580;2023-06-14T10:20:27;22.90;1.00
4279;DHT22;2153;47.744;10.580;2023-06-14T10:23:00;24.00;1.00
4279;DHT22;2153;47.744;10.580;2023-06-14T10:25:29;24.30;1.00
4279;DHT22;2153;47.744;10.580;2023-06-14T10:28:03;24.70;1.00
4279;DHT22;2153;47.744;10.580;2023-06-14T10:30:32;25.60;1.00
4279;DHT22;2153;47.744;10.580;2023-06-14T10:33:05;26.00;1.00
4279;DHT22;2153;47.744;10.580;2023-06-14T10:35:32;26.50;1.00
4279;DHT22;2153;47.744;10.580;2023-06-14T10:38:07;24.90;1.00
4279;DHT22;2153;47.744;10.580;2023-06-14T10:40:34;23.40;1.00
4279;DHT22;2153;47.744;10.580;2023-06-14T10:43:21;23.60;1.00
4279;DHT22;2153;47.744;10.580;2023-06-14T10:46:15;23.30;1.00
4279;DHT22;2153;47.744;10.580;2023-06-14T10:48:42;22.80;1.00
4279;DHT22;2153;47.744;10.580;2023-06-14T10:51:16;23.80;1.00
4279;DHT22;2153;47.744;10.580;2023-06-14T10:53:46;24.30;1.00
4279;DHT22;2153;47.744;10.580;2023-06-14T10:56:24;25.30;1.00
4279;DHT22;2153;47.744;10.580;2023-06-14T10:58:52;25.30;1.00
4279;DHT22;2153;47.744;10.580;2023-06-14T11:01:29;24.70;1.00
4279;DHT22;2153;47.744;10.580;2023-06-14T11:04:07;24.90;1.00
4279;DHT22;2153;47.744;10.580;2023-06-14T11:06:46;24.50;1.00
4279;DHT22;2153;47.744;10.580;2023-06-14T11:12:14;25.20;1.00
4279;DHT22;2153;47.744;10.580;2023-06-14T11:14:42;25.50;1.00
4279;DHT22;2153;47.744;10.580;2023-06-14T11:17:12;26.00;1.00
4279;DHT22;2153;47.744;10.580;2023-06-14T11:19:38;26.50;1.00
4279;DHT22;2153;47.744;10.580;2023-06-14T11:22:05;26.40;1.00
4279;DHT22;2153;47.744;10.580;2023-06-14T11:24:33;26.70;1.00
4279;DHT22;2153;47.744;10.580;2023-06-14T11:26:59;26.60;1.00
4279;DHT22;2153;47.744;10.580;2023-06-14T11:29:29;26.30;1.00
4279;DHT22;2153;47.744;10.580;2023-06-14T11:31:55;26.30;1.00
4279;DHT22;2153;47.744;10.580;2023-06-14T11:34:24;26.20;1.00
4279;DHT22;2153;47.744;10.580;2023-06-14T11:36:51;26.40;1.00
4279;DHT22;2153;47.744;10.580;2023-06-14T11:39:17;26.50;1.00
4279;DHT22;2153;47.744;10.580;2023-06-14T11:41:50;26.50;1.00
4279;DHT22;2153;47.744;10.580;2023-06-14T11:44:17;26.50;1.00
4279;DHT22;2153;47.744;10.580;2023-06-14T11:46:44;26.60;1.00
4279;DHT22;2153;47.744;10.580;2023-06-14T11:49:11;24.10;1.00
4279;DHT22;2153;47.744;10.580;2023-06-14T11:51:39;22.90;1.00
4279;DHT22;2153;47.744;10.580;2023-06-14T11:54:06;22.50;1.00
4279;DHT22;2153;47.744;10.580;2023-06-14T11:56:34;23.10;1.00
4279;DHT22;2153;47.744;10.580;2023-06-14T11:59:02;24.00;1.00
4279;DHT22;2153;47.744;10.580;2023-06-14T12:01:31;24.10;1.00
4279;DHT22;2153;47.744;10.580;2023-06-14T12:03:58;23.90;1.00
4279;DHT22;2153;47.744;10.580;2023-06-14T12:06:26;23.90;1.00
4279;DHT22;2153;47.744;10.580;2023-06-14T12:08:56;24.10;1.00
4279;DHT22;2153;47.744;10.580;2023-06-14T12:11:23;25.10;1.00
4279;DHT22;2153;47.744;10.580;2023-06-14T12:13:50;24.70;1.00
4279;DHT22;2153;47.744;10.580;2023-06-14T12:16:17;25.40;1.00
4279;DHT22;2153;47.744;10.580;2023-06-14T12:18:43;25.70;1.00
4279;DHT22;2153;47.744;10.580;2023-06-14T12:21:11;26.30;1.00
4279;DHT22;2153;47.744;10.580;2023-06-14T12:23:46;26.90;1.00
4279;DHT22;2153;47.744;10.580;2023-06-14T12:26:15;26.80;1.00
4279;DHT22;2153;47.744;10.580;2023-06-14T12:28:42;27.10;1.00
4279;DHT22;2153;47.744;10.580;2023-06-14T12:31:10;27.30;1.00
4279;DHT22;2153;47.744;10.580;2023-06-14T12:33:38;27.00;1.00
4279;DHT22;2153;47.744;10.580;2023-06-14T12:36:06;26.70;1.00
4279;DHT22;2153;47.744;10.580;2023-06-14T12:38:33;26.80;1.00
4279;DHT22;2153;47.744;10.580;2023-06-14T12:41:00;27.20;1.00
4279;DHT22;2153;47.744;10.580;2023-06-14T12:43:28;27.00;1.00
4279;DHT22;2153;47.744;10.580;2023-06-14T12:45:55;26.50;1.00
4279;DHT22;2153;47.744;10.580;2023-06-14T12:48:21;26.30;1.00
4279;DHT22;2153;47.744;10.580;2023-06-14T12:50:48;26.40;1.00
4279;DHT22;2153;47.744;10.580;2023-06-14T12:53:15;26.90;1.00
4279;DHT22;2153;47.744;10.580;2023-06-14T12:55:42;26.70;1.00
4279;DHT22;2153;47.744;10.580;2023-06-14T12:58:09;26.80;1.00
4279;DHT22;2153;47.744;10.580;2023-06-14T13:00:39;26.20;1.00
4279;DHT22;2153;47.744;10.580;2023-06-14T13:03:06;24.70;1.00
4279;DHT22;2153;47.744;10.580;2023-06-14T13:05:32;24.00;1.00
4279;DHT22;2153;47.744;10.580;2023-06-14T13:08:00;23.80;1.00
4279;DHT22;2153;47.744;10.580;2023-06-14T13:10:27;24.00;1.00
4279;DHT22;2153;47.744;10.580;2023-06-14T13:12:53;24.50;1.00
4279;DHT22;2153;47.744;10.580;2023-06-14T13:15:20;25.00;1.00
4279;DHT22;2153;47.744;10.580;2023-06-14T13:17:48;25.30;1.00
4279;DHT22;2153;47.744;10.580;2023-06-14T13:20:16;25.80;1.00
4279;DHT22;2153;47.744;10.580;2023-06-14T13:22:42;26.50;1.00
4279;DHT22;2153;47.744;10.580;2023-06-14T13:25:09;24.70;1.00
4279;DHT22;2153;47.744;10.580;2023-06-14T13:27:36;24.30;1.00
4279;DHT22;2153;47.744;10.580;2023-06-14T13:30:04;23.90;1.00
4279;DHT22;2153;47.744;10.580;2023-06-14T13:32:31;24.60;1.00
4279;DHT22;2153;47.744;10.580;2023-06-14T13:34:59;24.50;1.00
4279;DHT22;2153;47.744;10.580;2023-06-14T13:37:26;24.20;1.00
4279;DHT22;2153;47.744;10.580;2023-06-14T13:39:52;24.70;1.00
4279;DHT22;2153;47.744;10.580;2023-06-14T13:42:19;25.20;1.00
4279;DHT22;2153;47.744;10.580;2023-06-14T13:44:46;26.20;1.00
4279;DHT22;2153;47.744;10.580;2023-06-14T13:47:12;26.60;1.00
4279;DHT22;2153;47.744;10.580;2023-06-14T13:49:39;26.80;1.00
4279;DHT22;2153;47.744;10.580;2023-06-14T13:52:07;26.60;1.00
4279;DHT22;2153;47.744;10.580;2023-06-14T13:54:34;26.60;1.00
4279;DHT22;2153;47.744;10.580;2023-06-14T13:57:01;26.90;1.00
4279;DHT22;2153;47.744;10.580;2023-06-14T13:59:28;27.20;1.00
4279;DHT22;2153;47.744;10.580;2023-06-14T14:01:54;27.40;1.00
4279;DHT22;2153;47.744;10.580;2023-06-14T14:04:21;27.40;1.00
4279;DHT22;2153;47.744;10.580;2023-06-14T14:06:47;27.30;1.00
4279;DHT22;2153;47.744;10.580;2023-06-14T14:09:15;27.10;1.00
4279;DHT22;2153;47.744;10.580;2023-06-14T14:11:42;26.40;1.00
4279;DHT22;2153;47.744;10.580;2023-06-14T14:14:09;26.10;1.00
4279;DHT22;2153;47.744;10.580;2023-06-14T14:16:36;24.60;1.00
4279;DHT22;2153;47.744;10.580;2023-06-14T14:19:03;23.20;1.00
4279;DHT22;2153;47.744;10.580;2023-06-14T14:21:31;23.40;1.00
4279;DHT22;2153;47.744;10.580;2023-06-14T14:23:57;24.10;1.00
4279;DHT22;2153;47.744;10.580;2023-06-14T14:26:25;23.90;1.00
4279;DHT22;2153;47.744;10.580;2023-06-14T14:28:52;23.90;1.00
4279;DHT22;2153;47.744;10.580;2023-06-14T14:31:19;24.60;1.00
4279;DHT22;2153;47.744;10.580;2023-06-14T14:33:45;25.50;1.00
4279;DHT22;2153;47.744;10.580;2023-06-14T14:36:12;25.80;1.00
4279;DHT22;2153;47.744;10.580;2023-06-14T14:38:39;26.20;1.00
4279;DHT22;2153;47.744;10.580;2023-06-14T14:41:05;26.40;1.00
4279;DHT22;2153;47.744;10.580;2023-06-14T14:43:33;26.20;1.00
4279;DHT22;2153;47.744;10.580;2023-06-14T14:46:00;26.40;1.00
4279;DHT22;2153;47.744;10.580;2023-06-14T14:48:27;26.50;1.00
4279;DHT22;2153;47.744;10.580;2023-06-14T14:50:53;26.20;1.00
4279;DHT22;2153;47.744;10.580;2023-06-14T14:53:20;26.40;1.00
4279;DHT22;2153;47.744;10.580;2023-06-14T14:55:46;26.50;1.00
4279;DHT22;2153;47.744;10.580;2023-06-14T14:58:13;26.30;1.00
4279;DHT22;2153;47.744;10.580;2023-06-14T15:00:44;26.20;1.00
4279;DHT22;2153;47.744;10.580;2023-06-14T15:03:11;26.00;1.00
4279;DHT22;2153;47.744;10.580;2023-06-14T15:05:38;25.80;1.00
4279;DHT22;2153;47.744;10.580;2023-06-14T15:08:04;25.90;1.00
4279;DHT22;2153;47.744;10.580;2023-06-14T15:10:36;25.40;1.00
4279;DHT22;2153;47.744;10.580;2023-06-14T15:13:03;25.40;1.00
4279;DHT22;2153;47.744;10.580;2023-06-14T15:15:29;25.50;1.00
4279;DHT22;2153;47.744;10.580;2023-06-14T15:17:58;24.50;1.00
4279;DHT22;2153;47.744;10.580;2023-06-14T15:20:25;24.70;1.00
4279;DHT22;2153;47.744;10.580;2023-06-14T15:22:52;25.10;1.00
4279;DHT22;2153;47.744;10.580;2023-06-14T15:25:19;24.90;1.00
4279;DHT22;2153;47.744;10.580;2023-06-14T15:27:46;24.90;1.00
4279;DHT22;2153;47.744;10.580;2023-06-14T15:30:13;25.30;1.00
4279;DHT22;2153;47.744;10.580;2023-06-14T15:32:40;25.40;1.00
4279;DHT22;2153;47.744;10.580;2023-06-14T15:35:08;25.30;1.00
4279;DHT22;2153;47.744;10.580;2023-06-14T15:37:35;25.10;1.00
4279;DHT22;2153;47.744;10.580;2023-06-14T15:40:01;25.10;1.00
4279;DHT22;2153;47.744;10.580;2023-06-14T15:42:28;24.90;1.00
4279;DHT22;2153;47.744;10.580;2023-06-14T15:44:55;24.90;1.00
4279;DHT22;2153;47.744;10.580;2023-06-14T15:47:21;24.70;1.00
4279;DHT22;2153;47.744;10.580;2023-06-14T15:49:48;24.70;1.00
4279;DHT22;2153;47.744;10.580;2023-06-14T15:52:16;23.90;1.00
4279;DHT22;2153;47.744;10.580;2023-06-14T15:54:43;23.10;1.00
4279;DHT22;2153;47.744;10.580;2023-06-14T15:57:09;22.80;1.00
4279;DHT22;2153;47.744;10.580;2023-06-14T15:59:36;22.80;1.00
4279;DHT22;2153;47.744;10.580;2023-06-14T16:02:04;23.10;1.00
4279;DHT22;2153;47.744;10.580;2023-06-14T16:04:30;23.40;1.00
4279;DHT22;2153;47.744;10.580;2023-06-14T16:06:57;23.40;1.00